<?xml version="1.0" encoding="UTF-8" standalone="no" ?>
<gpx xmlns="http://www.topografix.com/GPX/1/1" xmlns:xsi="http://www.w3.org/2001/XMLSchema-instance" xsi:schemaLocation="http://www.topografix.com/GPX/1/1 http://www.topografix.com/GPX/1/1/gpx.xsd" version="1.1" creator="VisuGPX - https://www.visugpx.com">
  <metadata>
    <name>St maurice mirefleurs st Romain(nord) KT</name>
    <desc><![CDATA[Dur dur le st Romain côté nord...]]></desc>
  </metadata>
  <trk>
    <name><![CDATA[09-MARS-14 10:57:18 AM]]></name>
    <trkseg>
      <trkpt lat="45.66579" lon="3.23668">
        <ele>429.85</ele>
        <time>2014-03-09T08:17:15Z</time>
      </trkpt>
      <trkpt lat="45.6658" lon="3.23668">
        <ele>429.85</ele>
        <time>2014-03-09T08:17:29Z</time>
      </trkpt>
      <trkpt lat="45.66578" lon="3.23668">
        <ele>429.85</ele>
        <time>2014-03-09T08:17:52Z</time>
      </trkpt>
      <trkpt lat="45.66578" lon="3.23667">
        <ele>429.85</ele>
        <time>2014-03-09T08:18:08Z</time>
      </trkpt>
      <trkpt lat="45.66579" lon="3.23667">
        <ele>429.85</ele>
        <time>2014-03-09T08:18:30Z</time>
      </trkpt>
      <trkpt lat="45.6658" lon="3.23662">
        <ele>429.85</ele>
        <time>2014-03-09T08:18:42Z</time>
      </trkpt>
      <trkpt lat="45.66583" lon="3.23659">
        <ele>428.89</ele>
        <time>2014-03-09T08:18:45Z</time>
      </trkpt>
      <trkpt lat="45.66589" lon="3.23654">
        <ele>427.92</ele>
        <time>2014-03-09T08:18:50Z</time>
      </trkpt>
      <trkpt lat="45.6661" lon="3.23625">
        <ele>425.04</ele>
        <time>2014-03-09T08:19:03Z</time>
      </trkpt>
      <trkpt lat="45.66625" lon="3.23578">
        <ele>421.68</ele>
        <time>2014-03-09T08:19:19Z</time>
      </trkpt>
      <trkpt lat="45.66617" lon="3.23528">
        <ele>418.31</ele>
        <time>2014-03-09T08:19:32Z</time>
      </trkpt>
      <trkpt lat="45.66602" lon="3.23467">
        <ele>415.91</ele>
        <time>2014-03-09T08:19:49Z</time>
      </trkpt>
      <trkpt lat="45.66589" lon="3.23409">
        <ele>413.5</ele>
        <time>2014-03-09T08:20:05Z</time>
      </trkpt>
      <trkpt lat="45.6658" lon="3.23354">
        <ele>412.54</ele>
        <time>2014-03-09T08:20:20Z</time>
      </trkpt>
      <trkpt lat="45.66579" lon="3.23317">
        <ele>412.54</ele>
        <time>2014-03-09T08:20:32Z</time>
      </trkpt>
      <trkpt lat="45.66577" lon="3.23286">
        <ele>415.43</ele>
        <time>2014-03-09T08:20:42Z</time>
      </trkpt>
      <trkpt lat="45.66578" lon="3.2326">
        <ele>418.31</ele>
        <time>2014-03-09T08:20:51Z</time>
      </trkpt>
      <trkpt lat="45.66579" lon="3.2322">
        <ele>421.19</ele>
        <time>2014-03-09T08:21:04Z</time>
      </trkpt>
      <trkpt lat="45.66575" lon="3.23174">
        <ele>424.08</ele>
        <time>2014-03-09T08:21:18Z</time>
      </trkpt>
      <trkpt lat="45.66568" lon="3.23136">
        <ele>422.16</ele>
        <time>2014-03-09T08:21:32Z</time>
      </trkpt>
      <trkpt lat="45.66558" lon="3.2311">
        <ele>417.83</ele>
        <time>2014-03-09T08:21:42Z</time>
      </trkpt>
      <trkpt lat="45.66556" lon="3.23108">
        <ele>417.83</ele>
        <time>2014-03-09T08:21:43Z</time>
      </trkpt>
      <trkpt lat="45.66543" lon="3.23086">
        <ele>414.47</ele>
        <time>2014-03-09T08:21:52Z</time>
      </trkpt>
      <trkpt lat="45.6652" lon="3.23046">
        <ele>412.06</ele>
        <time>2014-03-09T08:22:06Z</time>
      </trkpt>
      <trkpt lat="45.66516" lon="3.23025">
        <ele>411.1</ele>
        <time>2014-03-09T08:22:12Z</time>
      </trkpt>
      <trkpt lat="45.66518" lon="3.23011">
        <ele>411.1</ele>
        <time>2014-03-09T08:22:16Z</time>
      </trkpt>
      <trkpt lat="45.66543" lon="3.2297">
        <ele>409.18</ele>
        <time>2014-03-09T08:22:32Z</time>
      </trkpt>
      <trkpt lat="45.66561" lon="3.22922">
        <ele>407.74</ele>
        <time>2014-03-09T08:22:48Z</time>
      </trkpt>
      <trkpt lat="45.66563" lon="3.22861">
        <ele>405.81</ele>
        <time>2014-03-09T08:23:04Z</time>
      </trkpt>
      <trkpt lat="45.6658" lon="3.22816">
        <ele>403.89</ele>
        <time>2014-03-09T08:23:18Z</time>
      </trkpt>
      <trkpt lat="45.66591" lon="3.22809">
        <ele>400.53</ele>
        <time>2014-03-09T08:23:23Z</time>
      </trkpt>
      <trkpt lat="45.66625" lon="3.22809">
        <ele>399.57</ele>
        <time>2014-03-09T08:23:38Z</time>
      </trkpt>
      <trkpt lat="45.66667" lon="3.2281">
        <ele>399.08</ele>
        <time>2014-03-09T08:23:54Z</time>
      </trkpt>
      <trkpt lat="45.66707" lon="3.2281">
        <ele>398.12</ele>
        <time>2014-03-09T08:24:11Z</time>
      </trkpt>
      <trkpt lat="45.66731" lon="3.22813">
        <ele>394.76</ele>
        <time>2014-03-09T08:24:20Z</time>
      </trkpt>
      <trkpt lat="45.66748" lon="3.22813">
        <ele>392.84</ele>
        <time>2014-03-09T08:24:26Z</time>
      </trkpt>
      <trkpt lat="45.66758" lon="3.22813">
        <ele>390.91</ele>
        <time>2014-03-09T08:24:30Z</time>
      </trkpt>
      <trkpt lat="45.66774" lon="3.22818">
        <ele>387.07</ele>
        <time>2014-03-09T08:24:38Z</time>
      </trkpt>
      <trkpt lat="45.6679" lon="3.22836">
        <ele>385.15</ele>
        <time>2014-03-09T08:24:48Z</time>
      </trkpt>
      <trkpt lat="45.66829" lon="3.22894">
        <ele>387.55</ele>
        <time>2014-03-09T08:25:07Z</time>
      </trkpt>
      <trkpt lat="45.66843" lon="3.22937">
        <ele>390.43</ele>
        <time>2014-03-09T08:25:22Z</time>
      </trkpt>
      <trkpt lat="45.66844" lon="3.2295">
        <ele>392.36</ele>
        <time>2014-03-09T08:25:26Z</time>
      </trkpt>
      <trkpt lat="45.66863" lon="3.22993">
        <ele>394.28</ele>
        <time>2014-03-09T08:25:44Z</time>
      </trkpt>
      <trkpt lat="45.6689" lon="3.23044">
        <ele>396.2</ele>
        <time>2014-03-09T08:26:03Z</time>
      </trkpt>
      <trkpt lat="45.669" lon="3.23077">
        <ele>399.08</ele>
        <time>2014-03-09T08:26:16Z</time>
      </trkpt>
      <trkpt lat="45.66913" lon="3.23116">
        <ele>401.49</ele>
        <time>2014-03-09T08:26:33Z</time>
      </trkpt>
      <trkpt lat="45.66943" lon="3.23158">
        <ele>401.97</ele>
        <time>2014-03-09T08:26:53Z</time>
      </trkpt>
      <trkpt lat="45.66975" lon="3.23144">
        <ele>400.53</ele>
        <time>2014-03-09T08:27:10Z</time>
      </trkpt>
      <trkpt lat="45.67014" lon="3.23153">
        <ele>402.45</ele>
        <time>2014-03-09T08:27:28Z</time>
      </trkpt>
      <trkpt lat="45.67048" lon="3.23158">
        <ele>405.33</ele>
        <time>2014-03-09T08:27:45Z</time>
      </trkpt>
      <trkpt lat="45.67089" lon="3.23179">
        <ele>407.74</ele>
        <time>2014-03-09T08:28:04Z</time>
      </trkpt>
      <trkpt lat="45.67106" lon="3.23192">
        <ele>410.14</ele>
        <time>2014-03-09T08:28:14Z</time>
      </trkpt>
      <trkpt lat="45.67124" lon="3.23216">
        <ele>413.5</ele>
        <time>2014-03-09T08:28:27Z</time>
      </trkpt>
      <trkpt lat="45.67127" lon="3.23233">
        <ele>416.39</ele>
        <time>2014-03-09T08:28:36Z</time>
      </trkpt>
      <trkpt lat="45.67146" lon="3.2327">
        <ele>419.75</ele>
        <time>2014-03-09T08:28:55Z</time>
      </trkpt>
      <trkpt lat="45.67158" lon="3.23299">
        <ele>423.12</ele>
        <time>2014-03-09T08:29:09Z</time>
      </trkpt>
      <trkpt lat="45.67168" lon="3.23328">
        <ele>426.48</ele>
        <time>2014-03-09T08:29:22Z</time>
      </trkpt>
      <trkpt lat="45.67175" lon="3.23347">
        <ele>429.37</ele>
        <time>2014-03-09T08:29:31Z</time>
      </trkpt>
      <trkpt lat="45.67182" lon="3.23358">
        <ele>431.29</ele>
        <time>2014-03-09T08:29:37Z</time>
      </trkpt>
      <trkpt lat="45.6719" lon="3.23378">
        <ele>434.17</ele>
        <time>2014-03-09T08:29:48Z</time>
      </trkpt>
      <trkpt lat="45.67199" lon="3.23392">
        <ele>436.58</ele>
        <time>2014-03-09T08:29:56Z</time>
      </trkpt>
      <trkpt lat="45.67207" lon="3.23417">
        <ele>439.46</ele>
        <time>2014-03-09T08:30:08Z</time>
      </trkpt>
      <trkpt lat="45.6719" lon="3.2344">
        <ele>442.34</ele>
        <time>2014-03-09T08:30:22Z</time>
      </trkpt>
      <trkpt lat="45.67181" lon="3.23452">
        <ele>445.71</ele>
        <time>2014-03-09T08:30:31Z</time>
      </trkpt>
      <trkpt lat="45.67167" lon="3.23477">
        <ele>448.59</ele>
        <time>2014-03-09T08:30:44Z</time>
      </trkpt>
      <trkpt lat="45.67158" lon="3.2352">
        <ele>451.96</ele>
        <time>2014-03-09T08:31:03Z</time>
      </trkpt>
      <trkpt lat="45.67166" lon="3.23547">
        <ele>453.88</ele>
        <time>2014-03-09T08:31:17Z</time>
      </trkpt>
      <trkpt lat="45.67174" lon="3.23593">
        <ele>457.72</ele>
        <time>2014-03-09T08:31:35Z</time>
      </trkpt>
      <trkpt lat="45.67173" lon="3.23623">
        <ele>458.69</ele>
        <time>2014-03-09T08:31:44Z</time>
      </trkpt>
      <trkpt lat="45.67185" lon="3.23607">
        <ele>456.76</ele>
        <time>2014-03-09T08:32:01Z</time>
      </trkpt>
      <trkpt lat="45.67203" lon="3.23558">
        <ele>455.32</ele>
        <time>2014-03-09T08:32:17Z</time>
      </trkpt>
      <trkpt lat="45.67231" lon="3.23514">
        <ele>452.92</ele>
        <time>2014-03-09T08:32:31Z</time>
      </trkpt>
      <trkpt lat="45.67272" lon="3.23486">
        <ele>451.48</ele>
        <time>2014-03-09T08:32:50Z</time>
      </trkpt>
      <trkpt lat="45.67308" lon="3.235">
        <ele>450.52</ele>
        <time>2014-03-09T08:33:06Z</time>
      </trkpt>
      <trkpt lat="45.67325" lon="3.23483">
        <ele>450.03</ele>
        <time>2014-03-09T08:33:16Z</time>
      </trkpt>
      <trkpt lat="45.67335" lon="3.23432">
        <ele>452.92</ele>
        <time>2014-03-09T08:33:32Z</time>
      </trkpt>
      <trkpt lat="45.67346" lon="3.23398">
        <ele>456.76</ele>
        <time>2014-03-09T08:33:44Z</time>
      </trkpt>
      <trkpt lat="45.67351" lon="3.23374">
        <ele>459.65</ele>
        <time>2014-03-09T08:33:53Z</time>
      </trkpt>
      <trkpt lat="45.67355" lon="3.23361">
        <ele>461.57</ele>
        <time>2014-03-09T08:33:58Z</time>
      </trkpt>
      <trkpt lat="45.67357" lon="3.23353">
        <ele>462.53</ele>
        <time>2014-03-09T08:34:01Z</time>
      </trkpt>
      <trkpt lat="45.6737" lon="3.23334">
        <ele>465.9</ele>
        <time>2014-03-09T08:34:11Z</time>
      </trkpt>
      <trkpt lat="45.67398" lon="3.23299">
        <ele>468.78</ele>
        <time>2014-03-09T08:34:28Z</time>
      </trkpt>
      <trkpt lat="45.67416" lon="3.23269">
        <ele>472.14</ele>
        <time>2014-03-09T08:34:42Z</time>
      </trkpt>
      <trkpt lat="45.67424" lon="3.23252">
        <ele>474.55</ele>
        <time>2014-03-09T08:34:52Z</time>
      </trkpt>
      <trkpt lat="45.6741" lon="3.23201">
        <ele>477.43</ele>
        <time>2014-03-09T08:35:10Z</time>
      </trkpt>
      <trkpt lat="45.67397" lon="3.23166">
        <ele>481.28</ele>
        <time>2014-03-09T08:35:24Z</time>
      </trkpt>
      <trkpt lat="45.6739" lon="3.23135">
        <ele>484.16</ele>
        <time>2014-03-09T08:35:38Z</time>
      </trkpt>
      <trkpt lat="45.67389" lon="3.23112">
        <ele>487.53</ele>
        <time>2014-03-09T08:35:49Z</time>
      </trkpt>
      <trkpt lat="45.67389" lon="3.231">
        <ele>488.97</ele>
        <time>2014-03-09T08:35:54Z</time>
      </trkpt>
      <trkpt lat="45.67389" lon="3.23091">
        <ele>489.45</ele>
        <time>2014-03-09T08:35:58Z</time>
      </trkpt>
      <trkpt lat="45.6739" lon="3.23061">
        <ele>493.29</ele>
        <time>2014-03-09T08:36:11Z</time>
      </trkpt>
      <trkpt lat="45.67396" lon="3.23035">
        <ele>496.66</ele>
        <time>2014-03-09T08:36:22Z</time>
      </trkpt>
      <trkpt lat="45.67404" lon="3.23018">
        <ele>499.54</ele>
        <time>2014-03-09T08:36:32Z</time>
      </trkpt>
      <trkpt lat="45.67417" lon="3.22994">
        <ele>502.91</ele>
        <time>2014-03-09T08:36:45Z</time>
      </trkpt>
      <trkpt lat="45.67434" lon="3.22975">
        <ele>505.79</ele>
        <time>2014-03-09T08:36:59Z</time>
      </trkpt>
      <trkpt lat="45.6746" lon="3.22956">
        <ele>509.16</ele>
        <time>2014-03-09T08:37:15Z</time>
      </trkpt>
      <trkpt lat="45.67477" lon="3.22941">
        <ele>512.04</ele>
        <time>2014-03-09T08:37:26Z</time>
      </trkpt>
      <trkpt lat="45.67492" lon="3.22927">
        <ele>514.92</ele>
        <time>2014-03-09T08:37:35Z</time>
      </trkpt>
      <trkpt lat="45.67508" lon="3.22906">
        <ele>518.29</ele>
        <time>2014-03-09T08:37:47Z</time>
      </trkpt>
      <trkpt lat="45.67542" lon="3.22883">
        <ele>516.37</ele>
        <time>2014-03-09T08:38:06Z</time>
      </trkpt>
      <trkpt lat="45.67567" lon="3.22874">
        <ele>513</ele>
        <time>2014-03-09T08:38:19Z</time>
      </trkpt>
      <trkpt lat="45.6759" lon="3.22884">
        <ele>509.16</ele>
        <time>2014-03-09T08:38:30Z</time>
      </trkpt>
      <trkpt lat="45.67627" lon="3.2289">
        <ele>507.23</ele>
        <time>2014-03-09T08:38:45Z</time>
      </trkpt>
      <trkpt lat="45.67672" lon="3.22895">
        <ele>510.12</ele>
        <time>2014-03-09T08:39:03Z</time>
      </trkpt>
      <trkpt lat="45.67696" lon="3.22893">
        <ele>513.48</ele>
        <time>2014-03-09T08:39:14Z</time>
      </trkpt>
      <trkpt lat="45.67732" lon="3.22886">
        <ele>516.85</ele>
        <time>2014-03-09T08:39:30Z</time>
      </trkpt>
      <trkpt lat="45.67762" lon="3.22863">
        <ele>519.73</ele>
        <time>2014-03-09T08:39:48Z</time>
      </trkpt>
      <trkpt lat="45.67788" lon="3.22822">
        <ele>518.77</ele>
        <time>2014-03-09T08:40:04Z</time>
      </trkpt>
      <trkpt lat="45.67824" lon="3.22797">
        <ele>519.25</ele>
        <time>2014-03-09T08:40:21Z</time>
      </trkpt>
      <trkpt lat="45.67872" lon="3.22769">
        <ele>518.29</ele>
        <time>2014-03-09T08:40:38Z</time>
      </trkpt>
      <trkpt lat="45.67906" lon="3.22743">
        <ele>517.33</ele>
        <time>2014-03-09T08:40:54Z</time>
      </trkpt>
      <trkpt lat="45.67945" lon="3.22713">
        <ele>518.29</ele>
        <time>2014-03-09T08:41:11Z</time>
      </trkpt>
      <trkpt lat="45.6799" lon="3.22694">
        <ele>518.77</ele>
        <time>2014-03-09T08:41:32Z</time>
      </trkpt>
      <trkpt lat="45.68044" lon="3.22682">
        <ele>517.33</ele>
        <time>2014-03-09T08:41:53Z</time>
      </trkpt>
      <trkpt lat="45.68081" lon="3.22677">
        <ele>514.44</ele>
        <time>2014-03-09T08:42:08Z</time>
      </trkpt>
      <trkpt lat="45.68123" lon="3.22671">
        <ele>513</ele>
        <time>2014-03-09T08:42:26Z</time>
      </trkpt>
      <trkpt lat="45.68143" lon="3.22668">
        <ele>509.16</ele>
        <time>2014-03-09T08:42:35Z</time>
      </trkpt>
      <trkpt lat="45.68146" lon="3.22667">
        <ele>508.67</ele>
        <time>2014-03-09T08:42:36Z</time>
      </trkpt>
      <trkpt lat="45.68157" lon="3.22661">
        <ele>507.23</ele>
        <time>2014-03-09T08:42:41Z</time>
      </trkpt>
      <trkpt lat="45.68176" lon="3.22645">
        <ele>503.87</ele>
        <time>2014-03-09T08:42:50Z</time>
      </trkpt>
      <trkpt lat="45.68187" lon="3.22634">
        <ele>501.95</ele>
        <time>2014-03-09T08:42:55Z</time>
      </trkpt>
      <trkpt lat="45.68221" lon="3.22606">
        <ele>498.58</ele>
        <time>2014-03-09T08:43:10Z</time>
      </trkpt>
      <trkpt lat="45.68259" lon="3.22577">
        <ele>496.66</ele>
        <time>2014-03-09T08:43:27Z</time>
      </trkpt>
      <trkpt lat="45.68315" lon="3.22559">
        <ele>493.77</ele>
        <time>2014-03-09T08:43:50Z</time>
      </trkpt>
      <trkpt lat="45.68362" lon="3.22541">
        <ele>490.41</ele>
        <time>2014-03-09T08:44:10Z</time>
      </trkpt>
      <trkpt lat="45.68375" lon="3.22538">
        <ele>487.53</ele>
        <time>2014-03-09T08:44:16Z</time>
      </trkpt>
      <trkpt lat="45.68407" lon="3.22528">
        <ele>484.64</ele>
        <time>2014-03-09T08:44:32Z</time>
      </trkpt>
      <trkpt lat="45.68434" lon="3.22517">
        <ele>481.28</ele>
        <time>2014-03-09T08:44:43Z</time>
      </trkpt>
      <trkpt lat="45.68458" lon="3.22503">
        <ele>478.39</ele>
        <time>2014-03-09T08:44:54Z</time>
      </trkpt>
      <trkpt lat="45.68479" lon="3.22495">
        <ele>476.47</ele>
        <time>2014-03-09T08:45:03Z</time>
      </trkpt>
      <trkpt lat="45.68502" lon="3.22485">
        <ele>473.11</ele>
        <time>2014-03-09T08:45:13Z</time>
      </trkpt>
      <trkpt lat="45.68517" lon="3.22481">
        <ele>470.7</ele>
        <time>2014-03-09T08:45:19Z</time>
      </trkpt>
      <trkpt lat="45.68541" lon="3.22475">
        <ele>467.34</ele>
        <time>2014-03-09T08:45:29Z</time>
      </trkpt>
      <trkpt lat="45.68564" lon="3.22471">
        <ele>464.45</ele>
        <time>2014-03-09T08:45:38Z</time>
      </trkpt>
      <trkpt lat="45.68589" lon="3.22466">
        <ele>461.09</ele>
        <time>2014-03-09T08:45:48Z</time>
      </trkpt>
      <trkpt lat="45.68605" lon="3.22471">
        <ele>457.72</ele>
        <time>2014-03-09T08:45:55Z</time>
      </trkpt>
      <trkpt lat="45.68607" lon="3.22472">
        <ele>457.24</ele>
        <time>2014-03-09T08:45:56Z</time>
      </trkpt>
      <trkpt lat="45.68622" lon="3.22483">
        <ele>454.84</ele>
        <time>2014-03-09T08:46:02Z</time>
      </trkpt>
      <trkpt lat="45.68641" lon="3.22495">
        <ele>451.48</ele>
        <time>2014-03-09T08:46:11Z</time>
      </trkpt>
      <trkpt lat="45.68661" lon="3.22506">
        <ele>448.11</ele>
        <time>2014-03-09T08:46:20Z</time>
      </trkpt>
      <trkpt lat="45.6869" lon="3.22515">
        <ele>444.27</ele>
        <time>2014-03-09T08:46:31Z</time>
      </trkpt>
      <trkpt lat="45.68715" lon="3.22514">
        <ele>441.38</ele>
        <time>2014-03-09T08:46:42Z</time>
      </trkpt>
      <trkpt lat="45.68752" lon="3.2251">
        <ele>438.02</ele>
        <time>2014-03-09T08:46:56Z</time>
      </trkpt>
      <trkpt lat="45.68792" lon="3.225">
        <ele>435.13</ele>
        <time>2014-03-09T08:47:10Z</time>
      </trkpt>
      <trkpt lat="45.68822" lon="3.22497">
        <ele>431.77</ele>
        <time>2014-03-09T08:47:21Z</time>
      </trkpt>
      <trkpt lat="45.68867" lon="3.22495">
        <ele>429.37</ele>
        <time>2014-03-09T08:47:38Z</time>
      </trkpt>
      <trkpt lat="45.68902" lon="3.22496">
        <ele>426</ele>
        <time>2014-03-09T08:47:52Z</time>
      </trkpt>
      <trkpt lat="45.68931" lon="3.22498">
        <ele>422.64</ele>
        <time>2014-03-09T08:48:03Z</time>
      </trkpt>
      <trkpt lat="45.68965" lon="3.22493">
        <ele>419.27</ele>
        <time>2014-03-09T08:48:17Z</time>
      </trkpt>
      <trkpt lat="45.68995" lon="3.22484">
        <ele>416.39</ele>
        <time>2014-03-09T08:48:28Z</time>
      </trkpt>
      <trkpt lat="45.69028" lon="3.22476">
        <ele>413.02</ele>
        <time>2014-03-09T08:48:42Z</time>
      </trkpt>
      <trkpt lat="45.69055" lon="3.22489">
        <ele>409.66</ele>
        <time>2014-03-09T08:48:55Z</time>
      </trkpt>
      <trkpt lat="45.69087" lon="3.22508">
        <ele>406.77</ele>
        <time>2014-03-09T08:49:09Z</time>
      </trkpt>
      <trkpt lat="45.6911" lon="3.22521">
        <ele>403.41</ele>
        <time>2014-03-09T08:49:19Z</time>
      </trkpt>
      <trkpt lat="45.69135" lon="3.22545">
        <ele>400.53</ele>
        <time>2014-03-09T08:49:31Z</time>
      </trkpt>
      <trkpt lat="45.69148" lon="3.2256">
        <ele>398.12</ele>
        <time>2014-03-09T08:49:37Z</time>
      </trkpt>
      <trkpt lat="45.69166" lon="3.22587">
        <ele>394.76</ele>
        <time>2014-03-09T08:49:47Z</time>
      </trkpt>
      <trkpt lat="45.69178" lon="3.22607">
        <ele>391.87</ele>
        <time>2014-03-09T08:49:55Z</time>
      </trkpt>
      <trkpt lat="45.69193" lon="3.22629">
        <ele>388.99</ele>
        <time>2014-03-09T08:50:05Z</time>
      </trkpt>
      <trkpt lat="45.69235" lon="3.22642">
        <ele>386.11</ele>
        <time>2014-03-09T08:50:24Z</time>
      </trkpt>
      <trkpt lat="45.69255" lon="3.22686">
        <ele>387.07</ele>
        <time>2014-03-09T08:50:39Z</time>
      </trkpt>
      <trkpt lat="45.6924" lon="3.22739">
        <ele>389.95</ele>
        <time>2014-03-09T08:50:57Z</time>
      </trkpt>
      <trkpt lat="45.69221" lon="3.22782">
        <ele>393.32</ele>
        <time>2014-03-09T08:51:12Z</time>
      </trkpt>
      <trkpt lat="45.69222" lon="3.22825">
        <ele>396.2</ele>
        <time>2014-03-09T08:51:27Z</time>
      </trkpt>
      <trkpt lat="45.69219" lon="3.22857">
        <ele>399.57</ele>
        <time>2014-03-09T08:51:40Z</time>
      </trkpt>
      <trkpt lat="45.69217" lon="3.2287">
        <ele>400.05</ele>
        <time>2014-03-09T08:51:47Z</time>
      </trkpt>
      <trkpt lat="45.692" lon="3.22906">
        <ele>402.45</ele>
        <time>2014-03-09T08:51:59Z</time>
      </trkpt>
      <trkpt lat="45.6917" lon="3.22952">
        <ele>404.85</ele>
        <time>2014-03-09T08:52:19Z</time>
      </trkpt>
      <trkpt lat="45.69165" lon="3.22964">
        <ele>407.74</ele>
        <time>2014-03-09T08:52:26Z</time>
      </trkpt>
      <trkpt lat="45.69164" lon="3.22981">
        <ele>408.7</ele>
        <time>2014-03-09T08:52:33Z</time>
      </trkpt>
      <trkpt lat="45.69177" lon="3.23004">
        <ele>407.74</ele>
        <time>2014-03-09T08:52:46Z</time>
      </trkpt>
      <trkpt lat="45.69217" lon="3.23006">
        <ele>411.58</ele>
        <time>2014-03-09T08:53:02Z</time>
      </trkpt>
      <trkpt lat="45.69219" lon="3.23006">
        <ele>411.58</ele>
        <time>2014-03-09T08:53:03Z</time>
      </trkpt>
      <trkpt lat="45.69228" lon="3.23007">
        <ele>413.02</ele>
        <time>2014-03-09T08:53:06Z</time>
      </trkpt>
      <trkpt lat="45.69245" lon="3.23011">
        <ele>416.39</ele>
        <time>2014-03-09T08:53:17Z</time>
      </trkpt>
      <trkpt lat="45.69254" lon="3.23013">
        <ele>418.31</ele>
        <time>2014-03-09T08:53:22Z</time>
      </trkpt>
      <trkpt lat="45.69259" lon="3.23016">
        <ele>419.75</ele>
        <time>2014-03-09T08:53:25Z</time>
      </trkpt>
      <trkpt lat="45.69268" lon="3.23018">
        <ele>421.68</ele>
        <time>2014-03-09T08:53:31Z</time>
      </trkpt>
      <trkpt lat="45.69284" lon="3.23022">
        <ele>425.04</ele>
        <time>2014-03-09T08:53:40Z</time>
      </trkpt>
      <trkpt lat="45.69299" lon="3.23023">
        <ele>428.4</ele>
        <time>2014-03-09T08:53:48Z</time>
      </trkpt>
      <trkpt lat="45.6931" lon="3.2302">
        <ele>429.85</ele>
        <time>2014-03-09T08:53:55Z</time>
      </trkpt>
      <trkpt lat="45.69322" lon="3.23017">
        <ele>432.73</ele>
        <time>2014-03-09T08:54:03Z</time>
      </trkpt>
      <trkpt lat="45.6933" lon="3.23013">
        <ele>436.1</ele>
        <time>2014-03-09T08:54:10Z</time>
      </trkpt>
      <trkpt lat="45.69337" lon="3.23009">
        <ele>438.5</ele>
        <time>2014-03-09T08:54:17Z</time>
      </trkpt>
      <trkpt lat="45.69341" lon="3.23006">
        <ele>439.46</ele>
        <time>2014-03-09T08:54:20Z</time>
      </trkpt>
      <trkpt lat="45.69355" lon="3.22999">
        <ele>442.82</ele>
        <time>2014-03-09T08:54:30Z</time>
      </trkpt>
      <trkpt lat="45.69367" lon="3.2299">
        <ele>445.71</ele>
        <time>2014-03-09T08:54:39Z</time>
      </trkpt>
      <trkpt lat="45.69373" lon="3.22985">
        <ele>448.11</ele>
        <time>2014-03-09T08:54:44Z</time>
      </trkpt>
      <trkpt lat="45.69378" lon="3.22982">
        <ele>449.55</ele>
        <time>2014-03-09T08:54:47Z</time>
      </trkpt>
      <trkpt lat="45.69387" lon="3.22975">
        <ele>451</ele>
        <time>2014-03-09T08:54:56Z</time>
      </trkpt>
      <trkpt lat="45.69406" lon="3.2299">
        <ele>454.36</ele>
        <time>2014-03-09T08:55:15Z</time>
      </trkpt>
      <trkpt lat="45.69426" lon="3.23009">
        <ele>457.72</ele>
        <time>2014-03-09T08:55:29Z</time>
      </trkpt>
      <trkpt lat="45.6945" lon="3.23032">
        <ele>461.09</ele>
        <time>2014-03-09T08:55:48Z</time>
      </trkpt>
      <trkpt lat="45.69467" lon="3.23048">
        <ele>463.49</ele>
        <time>2014-03-09T08:56:01Z</time>
      </trkpt>
      <trkpt lat="45.69481" lon="3.23059">
        <ele>464.93</ele>
        <time>2014-03-09T08:56:10Z</time>
      </trkpt>
      <trkpt lat="45.69488" lon="3.23063">
        <ele>463.97</ele>
        <time>2014-03-09T08:56:14Z</time>
      </trkpt>
      <trkpt lat="45.69502" lon="3.23094">
        <ele>465.9</ele>
        <time>2014-03-09T08:56:32Z</time>
      </trkpt>
      <trkpt lat="45.69502" lon="3.23139">
        <ele>469.26</ele>
        <time>2014-03-09T08:56:52Z</time>
      </trkpt>
      <trkpt lat="45.6949" lon="3.23176">
        <ele>471.18</ele>
        <time>2014-03-09T08:57:14Z</time>
      </trkpt>
      <trkpt lat="45.69489" lon="3.2318">
        <ele>472.63</ele>
        <time>2014-03-09T08:57:17Z</time>
      </trkpt>
      <trkpt lat="45.6947" lon="3.23229">
        <ele>475.51</ele>
        <time>2014-03-09T08:57:37Z</time>
      </trkpt>
      <trkpt lat="45.69465" lon="3.23278">
        <ele>477.91</ele>
        <time>2014-03-09T08:57:57Z</time>
      </trkpt>
      <trkpt lat="45.69463" lon="3.23325">
        <ele>480.8</ele>
        <time>2014-03-09T08:58:18Z</time>
      </trkpt>
      <trkpt lat="45.6946" lon="3.23372">
        <ele>483.2</ele>
        <time>2014-03-09T08:58:37Z</time>
      </trkpt>
      <trkpt lat="45.69453" lon="3.23394">
        <ele>483.2</ele>
        <time>2014-03-09T08:58:45Z</time>
      </trkpt>
      <trkpt lat="45.69445" lon="3.23442">
        <ele>486.08</ele>
        <time>2014-03-09T08:59:05Z</time>
      </trkpt>
      <trkpt lat="45.69434" lon="3.23491">
        <ele>488.01</ele>
        <time>2014-03-09T08:59:27Z</time>
      </trkpt>
      <trkpt lat="45.69422" lon="3.23537">
        <ele>490.89</ele>
        <time>2014-03-09T08:59:44Z</time>
      </trkpt>
      <trkpt lat="45.6941" lon="3.23559">
        <ele>492.33</ele>
        <time>2014-03-09T08:59:57Z</time>
      </trkpt>
      <trkpt lat="45.69406" lon="3.23569">
        <ele>492.33</ele>
        <time>2014-03-09T09:00:01Z</time>
      </trkpt>
      <trkpt lat="45.69398" lon="3.23612">
        <ele>495.7</ele>
        <time>2014-03-09T09:00:19Z</time>
      </trkpt>
      <trkpt lat="45.69387" lon="3.23635">
        <ele>496.18</ele>
        <time>2014-03-09T09:00:29Z</time>
      </trkpt>
      <trkpt lat="45.69345" lon="3.23676">
        <ele>497.14</ele>
        <time>2014-03-09T09:00:53Z</time>
      </trkpt>
      <trkpt lat="45.69317" lon="3.23711">
        <ele>497.14</ele>
        <time>2014-03-09T09:01:12Z</time>
      </trkpt>
      <trkpt lat="45.6928" lon="3.23753">
        <ele>496.66</ele>
        <time>2014-03-09T09:01:35Z</time>
      </trkpt>
      <trkpt lat="45.6926" lon="3.23785">
        <ele>493.29</ele>
        <time>2014-03-09T09:01:47Z</time>
      </trkpt>
      <trkpt lat="45.69242" lon="3.23843">
        <ele>489.93</ele>
        <time>2014-03-09T09:02:07Z</time>
      </trkpt>
      <trkpt lat="45.6925" lon="3.23893">
        <ele>489.93</ele>
        <time>2014-03-09T09:02:23Z</time>
      </trkpt>
      <trkpt lat="45.69249" lon="3.23945">
        <ele>493.29</ele>
        <time>2014-03-09T09:02:41Z</time>
      </trkpt>
      <trkpt lat="45.69244" lon="3.23993">
        <ele>496.66</ele>
        <time>2014-03-09T09:02:54Z</time>
      </trkpt>
      <trkpt lat="45.6924" lon="3.24029">
        <ele>500.02</ele>
        <time>2014-03-09T09:03:07Z</time>
      </trkpt>
      <trkpt lat="45.69237" lon="3.24075">
        <ele>502.91</ele>
        <time>2014-03-09T09:03:21Z</time>
      </trkpt>
      <trkpt lat="45.69237" lon="3.24125">
        <ele>506.27</ele>
        <time>2014-03-09T09:03:38Z</time>
      </trkpt>
      <trkpt lat="45.69238" lon="3.24198">
        <ele>507.71</ele>
        <time>2014-03-09T09:04:04Z</time>
      </trkpt>
      <trkpt lat="45.69233" lon="3.24238">
        <ele>511.08</ele>
        <time>2014-03-09T09:04:21Z</time>
      </trkpt>
      <trkpt lat="45.69226" lon="3.2428">
        <ele>513</ele>
        <time>2014-03-09T09:04:40Z</time>
      </trkpt>
      <trkpt lat="45.69222" lon="3.24282">
        <ele>513</ele>
        <time>2014-03-09T09:04:42Z</time>
      </trkpt>
      <trkpt lat="45.69184" lon="3.24281">
        <ele>513.48</ele>
        <time>2014-03-09T09:05:00Z</time>
      </trkpt>
      <trkpt lat="45.6916" lon="3.24277">
        <ele>516.85</ele>
        <time>2014-03-09T09:05:10Z</time>
      </trkpt>
      <trkpt lat="45.69145" lon="3.24278">
        <ele>519.73</ele>
        <time>2014-03-09T09:05:21Z</time>
      </trkpt>
      <trkpt lat="45.69133" lon="3.24287">
        <ele>522.13</ele>
        <time>2014-03-09T09:05:30Z</time>
      </trkpt>
      <trkpt lat="45.69127" lon="3.24291">
        <ele>523.58</ele>
        <time>2014-03-09T09:05:34Z</time>
      </trkpt>
      <trkpt lat="45.69103" lon="3.24301">
        <ele>526.46</ele>
        <time>2014-03-09T09:05:45Z</time>
      </trkpt>
      <trkpt lat="45.69088" lon="3.24307">
        <ele>529.82</ele>
        <time>2014-03-09T09:05:54Z</time>
      </trkpt>
      <trkpt lat="45.69084" lon="3.2431">
        <ele>533.19</ele>
        <time>2014-03-09T09:06:04Z</time>
      </trkpt>
      <trkpt lat="45.69081" lon="3.24312">
        <ele>536.55</ele>
        <time>2014-03-09T09:06:09Z</time>
      </trkpt>
      <trkpt lat="45.69081" lon="3.24313">
        <ele>536.55</ele>
        <time>2014-03-09T09:06:10Z</time>
      </trkpt>
      <trkpt lat="45.69052" lon="3.24308">
        <ele>540.88</ele>
        <time>2014-03-09T09:06:26Z</time>
      </trkpt>
      <trkpt lat="45.69034" lon="3.24319">
        <ele>544.72</ele>
        <time>2014-03-09T09:06:37Z</time>
      </trkpt>
      <trkpt lat="45.69033" lon="3.24321">
        <ele>544.72</ele>
        <time>2014-03-09T09:06:38Z</time>
      </trkpt>
      <trkpt lat="45.69025" lon="3.2433">
        <ele>545.69</ele>
        <time>2014-03-09T09:06:44Z</time>
      </trkpt>
      <trkpt lat="45.69023" lon="3.24334">
        <ele>546.17</ele>
        <time>2014-03-09T09:06:46Z</time>
      </trkpt>
      <trkpt lat="45.69022" lon="3.24337">
        <ele>547.13</ele>
        <time>2014-03-09T09:06:48Z</time>
      </trkpt>
      <trkpt lat="45.69015" lon="3.2434">
        <ele>548.57</ele>
        <time>2014-03-09T09:06:51Z</time>
      </trkpt>
      <trkpt lat="45.69005" lon="3.24357">
        <ele>551.93</ele>
        <time>2014-03-09T09:07:02Z</time>
      </trkpt>
      <trkpt lat="45.68999" lon="3.24369">
        <ele>554.82</ele>
        <time>2014-03-09T09:07:14Z</time>
      </trkpt>
      <trkpt lat="45.68991" lon="3.24373">
        <ele>558.18</ele>
        <time>2014-03-09T09:07:22Z</time>
      </trkpt>
      <trkpt lat="45.68972" lon="3.24383">
        <ele>561.07</ele>
        <time>2014-03-09T09:07:35Z</time>
      </trkpt>
      <trkpt lat="45.6896" lon="3.24386">
        <ele>564.43</ele>
        <time>2014-03-09T09:07:47Z</time>
      </trkpt>
      <trkpt lat="45.68942" lon="3.24385">
        <ele>567.8</ele>
        <time>2014-03-09T09:08:01Z</time>
      </trkpt>
      <trkpt lat="45.68937" lon="3.24386">
        <ele>571.16</ele>
        <time>2014-03-09T09:08:16Z</time>
      </trkpt>
      <trkpt lat="45.68933" lon="3.24385">
        <ele>574.53</ele>
        <time>2014-03-09T09:08:28Z</time>
      </trkpt>
      <trkpt lat="45.68919" lon="3.24384">
        <ele>577.41</ele>
        <time>2014-03-09T09:08:40Z</time>
      </trkpt>
      <trkpt lat="45.68904" lon="3.24388">
        <ele>580.77</ele>
        <time>2014-03-09T09:08:57Z</time>
      </trkpt>
      <trkpt lat="45.6889" lon="3.24389">
        <ele>584.14</ele>
        <time>2014-03-09T09:09:07Z</time>
      </trkpt>
      <trkpt lat="45.68882" lon="3.24378">
        <ele>588.46</ele>
        <time>2014-03-09T09:09:23Z</time>
      </trkpt>
      <trkpt lat="45.68877" lon="3.24369">
        <ele>591.83</ele>
        <time>2014-03-09T09:09:33Z</time>
      </trkpt>
      <trkpt lat="45.68867" lon="3.24362">
        <ele>594.23</ele>
        <time>2014-03-09T09:09:47Z</time>
      </trkpt>
      <trkpt lat="45.68864" lon="3.24362">
        <ele>596.15</ele>
        <time>2014-03-09T09:09:50Z</time>
      </trkpt>
      <trkpt lat="45.68853" lon="3.24363">
        <ele>599.04</ele>
        <time>2014-03-09T09:09:58Z</time>
      </trkpt>
      <trkpt lat="45.68834" lon="3.24365">
        <ele>602.88</ele>
        <time>2014-03-09T09:10:13Z</time>
      </trkpt>
      <trkpt lat="45.68831" lon="3.24366">
        <ele>602.88</ele>
        <time>2014-03-09T09:10:15Z</time>
      </trkpt>
      <trkpt lat="45.68818" lon="3.24361">
        <ele>606.73</ele>
        <time>2014-03-09T09:10:30Z</time>
      </trkpt>
      <trkpt lat="45.68804" lon="3.24366">
        <ele>610.09</ele>
        <time>2014-03-09T09:10:48Z</time>
      </trkpt>
      <trkpt lat="45.68795" lon="3.24372">
        <ele>613.46</ele>
        <time>2014-03-09T09:11:01Z</time>
      </trkpt>
      <trkpt lat="45.68787" lon="3.24385">
        <ele>616.34</ele>
        <time>2014-03-09T09:11:13Z</time>
      </trkpt>
      <trkpt lat="45.68786" lon="3.24386">
        <ele>618.26</ele>
        <time>2014-03-09T09:11:17Z</time>
      </trkpt>
      <trkpt lat="45.68786" lon="3.24387">
        <ele>621.15</ele>
        <time>2014-03-09T09:11:31Z</time>
      </trkpt>
      <trkpt lat="45.68786" lon="3.24387">
        <ele>621.63</ele>
        <time>2014-03-09T09:11:32Z</time>
      </trkpt>
      <trkpt lat="45.68784" lon="3.24389">
        <ele>622.59</ele>
        <time>2014-03-09T09:11:34Z</time>
      </trkpt>
      <trkpt lat="45.68764" lon="3.24387">
        <ele>625.96</ele>
        <time>2014-03-09T09:11:49Z</time>
      </trkpt>
      <trkpt lat="45.68758" lon="3.24387">
        <ele>627.88</ele>
        <time>2014-03-09T09:11:56Z</time>
      </trkpt>
      <trkpt lat="45.68738" lon="3.24378">
        <ele>631.24</ele>
        <time>2014-03-09T09:12:13Z</time>
      </trkpt>
      <trkpt lat="45.68725" lon="3.24372">
        <ele>632.2</ele>
        <time>2014-03-09T09:12:21Z</time>
      </trkpt>
      <trkpt lat="45.68715" lon="3.24373">
        <ele>635.57</ele>
        <time>2014-03-09T09:12:28Z</time>
      </trkpt>
      <trkpt lat="45.68715" lon="3.24374">
        <ele>636.05</ele>
        <time>2014-03-09T09:12:29Z</time>
      </trkpt>
      <trkpt lat="45.68706" lon="3.24397">
        <ele>639.41</ele>
        <time>2014-03-09T09:12:45Z</time>
      </trkpt>
      <trkpt lat="45.68701" lon="3.24426">
        <ele>642.78</ele>
        <time>2014-03-09T09:13:02Z</time>
      </trkpt>
      <trkpt lat="45.68698" lon="3.24441">
        <ele>646.14</ele>
        <time>2014-03-09T09:13:10Z</time>
      </trkpt>
      <trkpt lat="45.68691" lon="3.24439">
        <ele>649.03</ele>
        <time>2014-03-09T09:13:24Z</time>
      </trkpt>
      <trkpt lat="45.68687" lon="3.24432">
        <ele>651.91</ele>
        <time>2014-03-09T09:13:38Z</time>
      </trkpt>
      <trkpt lat="45.68683" lon="3.24424">
        <ele>655.28</ele>
        <time>2014-03-09T09:13:50Z</time>
      </trkpt>
      <trkpt lat="45.68668" lon="3.24428">
        <ele>658.64</ele>
        <time>2014-03-09T09:14:09Z</time>
      </trkpt>
      <trkpt lat="45.6866" lon="3.2445">
        <ele>661.52</ele>
        <time>2014-03-09T09:14:22Z</time>
      </trkpt>
      <trkpt lat="45.68656" lon="3.2449">
        <ele>664.89</ele>
        <time>2014-03-09T09:14:43Z</time>
      </trkpt>
      <trkpt lat="45.68653" lon="3.24501">
        <ele>667.29</ele>
        <time>2014-03-09T09:14:50Z</time>
      </trkpt>
      <trkpt lat="45.68649" lon="3.24513">
        <ele>670.18</ele>
        <time>2014-03-09T09:14:59Z</time>
      </trkpt>
      <trkpt lat="45.68651" lon="3.24518">
        <ele>673.06</ele>
        <time>2014-03-09T09:15:13Z</time>
      </trkpt>
      <trkpt lat="45.6865" lon="3.24493">
        <ele>676.42</ele>
        <time>2014-03-09T09:15:33Z</time>
      </trkpt>
      <trkpt lat="45.68642" lon="3.24461">
        <ele>679.79</ele>
        <time>2014-03-09T09:15:50Z</time>
      </trkpt>
      <trkpt lat="45.68639" lon="3.24453">
        <ele>679.79</ele>
        <time>2014-03-09T09:15:55Z</time>
      </trkpt>
      <trkpt lat="45.68609" lon="3.24414">
        <ele>681.23</ele>
        <time>2014-03-09T09:16:17Z</time>
      </trkpt>
      <trkpt lat="45.68581" lon="3.24394">
        <ele>682.67</ele>
        <time>2014-03-09T09:16:35Z</time>
      </trkpt>
      <trkpt lat="45.68569" lon="3.244">
        <ele>686.04</ele>
        <time>2014-03-09T09:16:48Z</time>
      </trkpt>
      <trkpt lat="45.68585" lon="3.24421">
        <ele>687.96</ele>
        <time>2014-03-09T09:17:08Z</time>
      </trkpt>
      <trkpt lat="45.68596" lon="3.24431">
        <ele>688.92</ele>
        <time>2014-03-09T09:17:15Z</time>
      </trkpt>
      <trkpt lat="45.68598" lon="3.24442">
        <ele>690.36</ele>
        <time>2014-03-09T09:17:20Z</time>
      </trkpt>
      <trkpt lat="45.68601" lon="3.24458">
        <ele>693.73</ele>
        <time>2014-03-09T09:17:32Z</time>
      </trkpt>
      <trkpt lat="45.68598" lon="3.2448">
        <ele>697.09</ele>
        <time>2014-03-09T09:17:44Z</time>
      </trkpt>
      <trkpt lat="45.68597" lon="3.24503">
        <ele>699.98</ele>
        <time>2014-03-09T09:17:59Z</time>
      </trkpt>
      <trkpt lat="45.68593" lon="3.24521">
        <ele>703.34</ele>
        <time>2014-03-09T09:18:11Z</time>
      </trkpt>
      <trkpt lat="45.68595" lon="3.24514">
        <ele>706.23</ele>
        <time>2014-03-09T09:18:26Z</time>
      </trkpt>
      <trkpt lat="45.68581" lon="3.24486">
        <ele>709.11</ele>
        <time>2014-03-09T09:18:48Z</time>
      </trkpt>
      <trkpt lat="45.68555" lon="3.24464">
        <ele>709.59</ele>
        <time>2014-03-09T09:19:09Z</time>
      </trkpt>
      <trkpt lat="45.68519" lon="3.24441">
        <ele>710.07</ele>
        <time>2014-03-09T09:19:32Z</time>
      </trkpt>
      <trkpt lat="45.68504" lon="3.24436">
        <ele>710.55</ele>
        <time>2014-03-09T09:19:40Z</time>
      </trkpt>
      <trkpt lat="45.68463" lon="3.24424">
        <ele>709.59</ele>
        <time>2014-03-09T09:20:03Z</time>
      </trkpt>
      <trkpt lat="45.6844" lon="3.24406">
        <ele>706.23</ele>
        <time>2014-03-09T09:20:16Z</time>
      </trkpt>
      <trkpt lat="45.68423" lon="3.24395">
        <ele>703.34</ele>
        <time>2014-03-09T09:20:25Z</time>
      </trkpt>
      <trkpt lat="45.68417" lon="3.24391">
        <ele>701.42</ele>
        <time>2014-03-09T09:20:28Z</time>
      </trkpt>
      <trkpt lat="45.68415" lon="3.24388">
        <ele>700.94</ele>
        <time>2014-03-09T09:20:30Z</time>
      </trkpt>
      <trkpt lat="45.68407" lon="3.24381">
        <ele>699.98</ele>
        <time>2014-03-09T09:20:34Z</time>
      </trkpt>
      <trkpt lat="45.68387" lon="3.24384">
        <ele>699.5</ele>
        <time>2014-03-09T09:20:52Z</time>
      </trkpt>
      <trkpt lat="45.68384" lon="3.24376">
        <ele>699.02</ele>
        <time>2014-03-09T09:21:04Z</time>
      </trkpt>
      <trkpt lat="45.68383" lon="3.24376">
        <ele>700.46</ele>
        <time>2014-03-09T09:21:06Z</time>
      </trkpt>
      <trkpt lat="45.68378" lon="3.24366">
        <ele>699.5</ele>
        <time>2014-03-09T09:21:20Z</time>
      </trkpt>
      <trkpt lat="45.68368" lon="3.24358">
        <ele>698.05</ele>
        <time>2014-03-09T09:21:36Z</time>
      </trkpt>
      <trkpt lat="45.68361" lon="3.24353">
        <ele>694.69</ele>
        <time>2014-03-09T09:21:41Z</time>
      </trkpt>
      <trkpt lat="45.68343" lon="3.24333">
        <ele>691.33</ele>
        <time>2014-03-09T09:21:50Z</time>
      </trkpt>
      <trkpt lat="45.68313" lon="3.24321">
        <ele>688.92</ele>
        <time>2014-03-09T09:22:09Z</time>
      </trkpt>
      <trkpt lat="45.68272" lon="3.24309">
        <ele>690.84</ele>
        <time>2014-03-09T09:22:30Z</time>
      </trkpt>
      <trkpt lat="45.6825" lon="3.24303">
        <ele>693.73</ele>
        <time>2014-03-09T09:22:44Z</time>
      </trkpt>
      <trkpt lat="45.68226" lon="3.24294">
        <ele>697.09</ele>
        <time>2014-03-09T09:23:00Z</time>
      </trkpt>
      <trkpt lat="45.68209" lon="3.24295">
        <ele>699.98</ele>
        <time>2014-03-09T09:23:12Z</time>
      </trkpt>
      <trkpt lat="45.682" lon="3.24295">
        <ele>703.34</ele>
        <time>2014-03-09T09:23:21Z</time>
      </trkpt>
      <trkpt lat="45.68182" lon="3.24294">
        <ele>707.19</ele>
        <time>2014-03-09T09:23:36Z</time>
      </trkpt>
      <trkpt lat="45.68177" lon="3.24293">
        <ele>708.63</ele>
        <time>2014-03-09T09:23:40Z</time>
      </trkpt>
      <trkpt lat="45.68161" lon="3.24287">
        <ele>711.51</ele>
        <time>2014-03-09T09:23:59Z</time>
      </trkpt>
      <trkpt lat="45.68151" lon="3.24283">
        <ele>714.88</ele>
        <time>2014-03-09T09:24:08Z</time>
      </trkpt>
      <trkpt lat="45.68143" lon="3.24284">
        <ele>717.76</ele>
        <time>2014-03-09T09:24:16Z</time>
      </trkpt>
      <trkpt lat="45.68132" lon="3.24282">
        <ele>720.65</ele>
        <time>2014-03-09T09:24:25Z</time>
      </trkpt>
      <trkpt lat="45.68111" lon="3.24291">
        <ele>724.01</ele>
        <time>2014-03-09T09:24:43Z</time>
      </trkpt>
      <trkpt lat="45.681" lon="3.24296">
        <ele>724.97</ele>
        <time>2014-03-09T09:24:54Z</time>
      </trkpt>
      <trkpt lat="45.68096" lon="3.24298">
        <ele>726.89</ele>
        <time>2014-03-09T09:25:00Z</time>
      </trkpt>
      <trkpt lat="45.6809" lon="3.24293">
        <ele>726.89</ele>
        <time>2014-03-09T09:25:12Z</time>
      </trkpt>
      <trkpt lat="45.68088" lon="3.24291">
        <ele>726.89</ele>
        <time>2014-03-09T09:25:13Z</time>
      </trkpt>
      <trkpt lat="45.68076" lon="3.24269">
        <ele>726.41</ele>
        <time>2014-03-09T09:25:25Z</time>
      </trkpt>
      <trkpt lat="45.68073" lon="3.24264">
        <ele>725.93</ele>
        <time>2014-03-09T09:25:30Z</time>
      </trkpt>
      <trkpt lat="45.68072" lon="3.24249">
        <ele>724.49</ele>
        <time>2014-03-09T09:25:35Z</time>
      </trkpt>
      <trkpt lat="45.68065" lon="3.2423">
        <ele>722.57</ele>
        <time>2014-03-09T09:25:42Z</time>
      </trkpt>
      <trkpt lat="45.68064" lon="3.2422">
        <ele>720.65</ele>
        <time>2014-03-09T09:25:47Z</time>
      </trkpt>
      <trkpt lat="45.68064" lon="3.24208">
        <ele>720.16</ele>
        <time>2014-03-09T09:25:51Z</time>
      </trkpt>
      <trkpt lat="45.68059" lon="3.24198">
        <ele>719.2</ele>
        <time>2014-03-09T09:25:55Z</time>
      </trkpt>
      <trkpt lat="45.6805" lon="3.24182">
        <ele>718.24</ele>
        <time>2014-03-09T09:26:03Z</time>
      </trkpt>
      <trkpt lat="45.68046" lon="3.24172">
        <ele>717.76</ele>
        <time>2014-03-09T09:26:07Z</time>
      </trkpt>
      <trkpt lat="45.68044" lon="3.24158">
        <ele>714.88</ele>
        <time>2014-03-09T09:26:12Z</time>
      </trkpt>
      <trkpt lat="45.6804" lon="3.2415">
        <ele>713.44</ele>
        <time>2014-03-09T09:26:15Z</time>
      </trkpt>
      <trkpt lat="45.68034" lon="3.2414">
        <ele>711.99</ele>
        <time>2014-03-09T09:26:19Z</time>
      </trkpt>
      <trkpt lat="45.68014" lon="3.24126">
        <ele>709.59</ele>
        <time>2014-03-09T09:26:27Z</time>
      </trkpt>
      <trkpt lat="45.68006" lon="3.24116">
        <ele>707.19</ele>
        <time>2014-03-09T09:26:32Z</time>
      </trkpt>
      <trkpt lat="45.68" lon="3.24109">
        <ele>704.3</ele>
        <time>2014-03-09T09:26:36Z</time>
      </trkpt>
      <trkpt lat="45.67995" lon="3.24101">
        <ele>702.86</ele>
        <time>2014-03-09T09:26:40Z</time>
      </trkpt>
      <trkpt lat="45.67972" lon="3.24087">
        <ele>698.53</ele>
        <time>2014-03-09T09:26:51Z</time>
      </trkpt>
      <trkpt lat="45.67959" lon="3.2408">
        <ele>695.17</ele>
        <time>2014-03-09T09:26:56Z</time>
      </trkpt>
      <trkpt lat="45.67957" lon="3.24078">
        <ele>694.69</ele>
        <time>2014-03-09T09:26:57Z</time>
      </trkpt>
      <trkpt lat="45.67951" lon="3.24072">
        <ele>693.25</ele>
        <time>2014-03-09T09:27:01Z</time>
      </trkpt>
      <trkpt lat="45.67951" lon="3.24069">
        <ele>692.77</ele>
        <time>2014-03-09T09:27:03Z</time>
      </trkpt>
      <trkpt lat="45.67951" lon="3.24064">
        <ele>690.84</ele>
        <time>2014-03-09T09:27:07Z</time>
      </trkpt>
      <trkpt lat="45.6795" lon="3.2406">
        <ele>690.36</ele>
        <time>2014-03-09T09:27:09Z</time>
      </trkpt>
      <trkpt lat="45.67932" lon="3.24064">
        <ele>690.84</ele>
        <time>2014-03-09T09:27:23Z</time>
      </trkpt>
      <trkpt lat="45.67918" lon="3.24073">
        <ele>692.77</ele>
        <time>2014-03-09T09:27:35Z</time>
      </trkpt>
      <trkpt lat="45.67913" lon="3.24076">
        <ele>693.73</ele>
        <time>2014-03-09T09:27:38Z</time>
      </trkpt>
      <trkpt lat="45.67906" lon="3.24085">
        <ele>692.77</ele>
        <time>2014-03-09T09:27:44Z</time>
      </trkpt>
      <trkpt lat="45.67899" lon="3.24092">
        <ele>695.17</ele>
        <time>2014-03-09T09:27:51Z</time>
      </trkpt>
      <trkpt lat="45.67885" lon="3.24104">
        <ele>694.21</ele>
        <time>2014-03-09T09:28:00Z</time>
      </trkpt>
      <trkpt lat="45.67879" lon="3.24104">
        <ele>696.13</ele>
        <time>2014-03-09T09:28:04Z</time>
      </trkpt>
      <trkpt lat="45.67872" lon="3.24104">
        <ele>693.73</ele>
        <time>2014-03-09T09:28:11Z</time>
      </trkpt>
      <trkpt lat="45.67869" lon="3.24103">
        <ele>695.17</ele>
        <time>2014-03-09T09:28:15Z</time>
      </trkpt>
      <trkpt lat="45.67869" lon="3.24104">
        <ele>694.21</ele>
        <time>2014-03-09T09:28:35Z</time>
      </trkpt>
      <trkpt lat="45.67873" lon="3.24104">
        <ele>694.69</ele>
        <time>2014-03-09T09:28:43Z</time>
      </trkpt>
      <trkpt lat="45.67882" lon="3.24107">
        <ele>697.09</ele>
        <time>2014-03-09T09:28:53Z</time>
      </trkpt>
      <trkpt lat="45.67887" lon="3.24103">
        <ele>696.61</ele>
        <time>2014-03-09T09:28:59Z</time>
      </trkpt>
      <trkpt lat="45.67905" lon="3.24091">
        <ele>696.61</ele>
        <time>2014-03-09T09:29:11Z</time>
      </trkpt>
      <trkpt lat="45.67915" lon="3.24089">
        <ele>697.57</ele>
        <time>2014-03-09T09:29:25Z</time>
      </trkpt>
      <trkpt lat="45.67929" lon="3.24093">
        <ele>698.05</ele>
        <time>2014-03-09T09:29:39Z</time>
      </trkpt>
      <trkpt lat="45.67948" lon="3.241">
        <ele>700.46</ele>
        <time>2014-03-09T09:29:55Z</time>
      </trkpt>
      <trkpt lat="45.67957" lon="3.24104">
        <ele>702.86</ele>
        <time>2014-03-09T09:30:05Z</time>
      </trkpt>
      <trkpt lat="45.6796" lon="3.24111">
        <ele>705.75</ele>
        <time>2014-03-09T09:30:17Z</time>
      </trkpt>
      <trkpt lat="45.67962" lon="3.24114">
        <ele>706.23</ele>
        <time>2014-03-09T09:30:31Z</time>
      </trkpt>
      <trkpt lat="45.67969" lon="3.24115">
        <ele>709.59</ele>
        <time>2014-03-09T09:30:44Z</time>
      </trkpt>
      <trkpt lat="45.67977" lon="3.2412">
        <ele>711.51</ele>
        <time>2014-03-09T09:30:58Z</time>
      </trkpt>
      <trkpt lat="45.67977" lon="3.2412">
        <ele>711.51</ele>
        <time>2014-03-09T09:31:07Z</time>
      </trkpt>
      <trkpt lat="45.67976" lon="3.24123">
        <ele>711.51</ele>
        <time>2014-03-09T09:31:18Z</time>
      </trkpt>
      <trkpt lat="45.67982" lon="3.24125">
        <ele>713.44</ele>
        <time>2014-03-09T09:31:23Z</time>
      </trkpt>
      <trkpt lat="45.67989" lon="3.24129">
        <ele>715.84</ele>
        <time>2014-03-09T09:31:35Z</time>
      </trkpt>
      <trkpt lat="45.67993" lon="3.24135">
        <ele>719.2</ele>
        <time>2014-03-09T09:31:47Z</time>
      </trkpt>
      <trkpt lat="45.67992" lon="3.24136">
        <ele>719.2</ele>
        <time>2014-03-09T09:31:48Z</time>
      </trkpt>
      <trkpt lat="45.67989" lon="3.24139">
        <ele>722.09</ele>
        <time>2014-03-09T09:31:56Z</time>
      </trkpt>
      <trkpt lat="45.67989" lon="3.24144">
        <ele>724.01</ele>
        <time>2014-03-09T09:32:00Z</time>
      </trkpt>
      <trkpt lat="45.67989" lon="3.24146">
        <ele>723.53</ele>
        <time>2014-03-09T09:32:15Z</time>
      </trkpt>
      <trkpt lat="45.67993" lon="3.24151">
        <ele>726.41</ele>
        <time>2014-03-09T09:32:25Z</time>
      </trkpt>
      <trkpt lat="45.67995" lon="3.24151">
        <ele>727.37</ele>
        <time>2014-03-09T09:32:27Z</time>
      </trkpt>
      <trkpt lat="45.67999" lon="3.24158">
        <ele>729.3</ele>
        <time>2014-03-09T09:32:36Z</time>
      </trkpt>
      <trkpt lat="45.68003" lon="3.24161">
        <ele>729.78</ele>
        <time>2014-03-09T09:32:41Z</time>
      </trkpt>
      <trkpt lat="45.68009" lon="3.2417">
        <ele>732.18</ele>
        <time>2014-03-09T09:32:51Z</time>
      </trkpt>
      <trkpt lat="45.68011" lon="3.24172">
        <ele>733.14</ele>
        <time>2014-03-09T09:32:53Z</time>
      </trkpt>
      <trkpt lat="45.68016" lon="3.24177">
        <ele>735.55</ele>
        <time>2014-03-09T09:33:02Z</time>
      </trkpt>
      <trkpt lat="45.68018" lon="3.2418">
        <ele>736.51</ele>
        <time>2014-03-09T09:33:07Z</time>
      </trkpt>
      <trkpt lat="45.6802" lon="3.24188">
        <ele>738.43</ele>
        <time>2014-03-09T09:33:15Z</time>
      </trkpt>
      <trkpt lat="45.68018" lon="3.24195">
        <ele>741.31</ele>
        <time>2014-03-09T09:33:26Z</time>
      </trkpt>
      <trkpt lat="45.68017" lon="3.24196">
        <ele>742.76</ele>
        <time>2014-03-09T09:33:29Z</time>
      </trkpt>
      <trkpt lat="45.68015" lon="3.24193">
        <ele>743.24</ele>
        <time>2014-03-09T09:33:32Z</time>
      </trkpt>
      <trkpt lat="45.68015" lon="3.24194">
        <ele>744.2</ele>
        <time>2014-03-09T09:33:36Z</time>
      </trkpt>
      <trkpt lat="45.68014" lon="3.24193">
        <ele>744.2</ele>
        <time>2014-03-09T09:33:38Z</time>
      </trkpt>
      <trkpt lat="45.68011" lon="3.24196">
        <ele>747.56</ele>
        <time>2014-03-09T09:33:44Z</time>
      </trkpt>
      <trkpt lat="45.68007" lon="3.24203">
        <ele>748.52</ele>
        <time>2014-03-09T09:33:54Z</time>
      </trkpt>
      <trkpt lat="45.68004" lon="3.24208">
        <ele>751.89</ele>
        <time>2014-03-09T09:34:00Z</time>
      </trkpt>
      <trkpt lat="45.68004" lon="3.24209">
        <ele>749.97</ele>
        <time>2014-03-09T09:34:01Z</time>
      </trkpt>
      <trkpt lat="45.68005" lon="3.24212">
        <ele>751.41</ele>
        <time>2014-03-09T09:34:06Z</time>
      </trkpt>
      <trkpt lat="45.68" lon="3.24221">
        <ele>754.29</ele>
        <time>2014-03-09T09:34:12Z</time>
      </trkpt>
      <trkpt lat="45.67998" lon="3.24225">
        <ele>754.29</ele>
        <time>2014-03-09T09:34:17Z</time>
      </trkpt>
      <trkpt lat="45.67997" lon="3.24232">
        <ele>755.25</ele>
        <time>2014-03-09T09:34:27Z</time>
      </trkpt>
      <trkpt lat="45.67998" lon="3.24234">
        <ele>758.62</ele>
        <time>2014-03-09T09:34:30Z</time>
      </trkpt>
      <trkpt lat="45.67998" lon="3.24235">
        <ele>757.66</ele>
        <time>2014-03-09T09:34:31Z</time>
      </trkpt>
      <trkpt lat="45.67999" lon="3.24237">
        <ele>758.62</ele>
        <time>2014-03-09T09:34:38Z</time>
      </trkpt>
      <trkpt lat="45.67998" lon="3.24241">
        <ele>760.06</ele>
        <time>2014-03-09T09:34:45Z</time>
      </trkpt>
      <trkpt lat="45.67998" lon="3.24241">
        <ele>761.02</ele>
        <time>2014-03-09T09:34:47Z</time>
      </trkpt>
      <trkpt lat="45.67998" lon="3.24246">
        <ele>761.5</ele>
        <time>2014-03-09T09:34:51Z</time>
      </trkpt>
      <trkpt lat="45.67997" lon="3.24255">
        <ele>763.42</ele>
        <time>2014-03-09T09:35:00Z</time>
      </trkpt>
      <trkpt lat="45.67996" lon="3.24257">
        <ele>764.87</ele>
        <time>2014-03-09T09:35:05Z</time>
      </trkpt>
      <trkpt lat="45.68001" lon="3.24266">
        <ele>765.35</ele>
        <time>2014-03-09T09:35:14Z</time>
      </trkpt>
      <trkpt lat="45.68002" lon="3.24278">
        <ele>766.79</ele>
        <time>2014-03-09T09:35:23Z</time>
      </trkpt>
      <trkpt lat="45.68003" lon="3.24284">
        <ele>769.19</ele>
        <time>2014-03-09T09:35:30Z</time>
      </trkpt>
      <trkpt lat="45.68003" lon="3.24286">
        <ele>771.11</ele>
        <time>2014-03-09T09:35:37Z</time>
      </trkpt>
      <trkpt lat="45.68002" lon="3.24287">
        <ele>770.63</ele>
        <time>2014-03-09T09:35:38Z</time>
      </trkpt>
      <trkpt lat="45.68001" lon="3.24293">
        <ele>771.6</ele>
        <time>2014-03-09T09:35:44Z</time>
      </trkpt>
      <trkpt lat="45.68" lon="3.24294">
        <ele>772.56</ele>
        <time>2014-03-09T09:35:47Z</time>
      </trkpt>
      <trkpt lat="45.68" lon="3.24295">
        <ele>771.11</ele>
        <time>2014-03-09T09:35:53Z</time>
      </trkpt>
      <trkpt lat="45.68" lon="3.24295">
        <ele>773.04</ele>
        <time>2014-03-09T09:35:55Z</time>
      </trkpt>
      <trkpt lat="45.67999" lon="3.24295">
        <ele>775.92</ele>
        <time>2014-03-09T09:36:09Z</time>
      </trkpt>
      <trkpt lat="45.67997" lon="3.24295">
        <ele>776.4</ele>
        <time>2014-03-09T09:36:13Z</time>
      </trkpt>
      <trkpt lat="45.67997" lon="3.24294">
        <ele>773.52</ele>
        <time>2014-03-09T09:36:19Z</time>
      </trkpt>
      <trkpt lat="45.67997" lon="3.24295">
        <ele>776.88</ele>
        <time>2014-03-09T09:36:20Z</time>
      </trkpt>
      <trkpt lat="45.67996" lon="3.24296">
        <ele>775.44</ele>
        <time>2014-03-09T09:36:21Z</time>
      </trkpt>
      <trkpt lat="45.67993" lon="3.24297">
        <ele>774.96</ele>
        <time>2014-03-09T09:36:26Z</time>
      </trkpt>
      <trkpt lat="45.67994" lon="3.24301">
        <ele>773.04</ele>
        <time>2014-03-09T09:36:28Z</time>
      </trkpt>
      <trkpt lat="45.67994" lon="3.24297">
        <ele>773.04</ele>
        <time>2014-03-09T09:36:38Z</time>
      </trkpt>
      <trkpt lat="45.67995" lon="3.24294">
        <ele>774.48</ele>
        <time>2014-03-09T09:36:45Z</time>
      </trkpt>
      <trkpt lat="45.67994" lon="3.24294">
        <ele>772.08</ele>
        <time>2014-03-09T09:36:49Z</time>
      </trkpt>
      <trkpt lat="45.67995" lon="3.24296">
        <ele>774.48</ele>
        <time>2014-03-09T09:36:54Z</time>
      </trkpt>
      <trkpt lat="45.67995" lon="3.24296">
        <ele>774.48</ele>
        <time>2014-03-09T09:36:59Z</time>
      </trkpt>
      <trkpt lat="45.67994" lon="3.24296">
        <ele>774.48</ele>
        <time>2014-03-09T09:37:06Z</time>
      </trkpt>
      <trkpt lat="45.67994" lon="3.24296">
        <ele>773.52</ele>
        <time>2014-03-09T09:37:08Z</time>
      </trkpt>
      <trkpt lat="45.67995" lon="3.24298">
        <ele>774</ele>
        <time>2014-03-09T09:37:12Z</time>
      </trkpt>
      <trkpt lat="45.67994" lon="3.24298">
        <ele>773.52</ele>
        <time>2014-03-09T09:37:15Z</time>
      </trkpt>
      <trkpt lat="45.67995" lon="3.24295">
        <ele>771.6</ele>
        <time>2014-03-09T09:37:23Z</time>
      </trkpt>
      <trkpt lat="45.67995" lon="3.24296">
        <ele>776.88</ele>
        <time>2014-03-09T09:37:26Z</time>
      </trkpt>
      <trkpt lat="45.67995" lon="3.24296">
        <ele>775.92</ele>
        <time>2014-03-09T09:37:27Z</time>
      </trkpt>
      <trkpt lat="45.67995" lon="3.24296">
        <ele>774.48</ele>
        <time>2014-03-09T09:37:29Z</time>
      </trkpt>
      <trkpt lat="45.67996" lon="3.24294">
        <ele>772.56</ele>
        <time>2014-03-09T09:37:31Z</time>
      </trkpt>
      <trkpt lat="45.67996" lon="3.24295">
        <ele>772.56</ele>
        <time>2014-03-09T09:37:36Z</time>
      </trkpt>
      <trkpt lat="45.67994" lon="3.24296">
        <ele>770.15</ele>
        <time>2014-03-09T09:37:48Z</time>
      </trkpt>
      <trkpt lat="45.67994" lon="3.24295">
        <ele>774.96</ele>
        <time>2014-03-09T09:37:51Z</time>
      </trkpt>
      <trkpt lat="45.67994" lon="3.24295">
        <ele>774.96</ele>
        <time>2014-03-09T09:37:52Z</time>
      </trkpt>
      <trkpt lat="45.67994" lon="3.24296">
        <ele>773.52</ele>
        <time>2014-03-09T09:37:55Z</time>
      </trkpt>
      <trkpt lat="45.67994" lon="3.24296">
        <ele>774.96</ele>
        <time>2014-03-09T09:37:57Z</time>
      </trkpt>
      <trkpt lat="45.67993" lon="3.24294">
        <ele>773.52</ele>
        <time>2014-03-09T09:38:00Z</time>
      </trkpt>
      <trkpt lat="45.67993" lon="3.24296">
        <ele>773.52</ele>
        <time>2014-03-09T09:38:10Z</time>
      </trkpt>
      <trkpt lat="45.67992" lon="3.24297">
        <ele>774.48</ele>
        <time>2014-03-09T09:38:11Z</time>
      </trkpt>
      <trkpt lat="45.67995" lon="3.24298">
        <ele>776.4</ele>
        <time>2014-03-09T09:38:14Z</time>
      </trkpt>
      <trkpt lat="45.67992" lon="3.24295">
        <ele>777.84</ele>
        <time>2014-03-09T09:38:22Z</time>
      </trkpt>
      <trkpt lat="45.67992" lon="3.24295">
        <ele>776.88</ele>
        <time>2014-03-09T09:38:23Z</time>
      </trkpt>
      <trkpt lat="45.67991" lon="3.24293">
        <ele>774.96</ele>
        <time>2014-03-09T09:38:26Z</time>
      </trkpt>
      <trkpt lat="45.6799" lon="3.24285">
        <ele>776.88</ele>
        <time>2014-03-09T09:38:32Z</time>
      </trkpt>
      <trkpt lat="45.67989" lon="3.24282">
        <ele>769.67</ele>
        <time>2014-03-09T09:38:35Z</time>
      </trkpt>
      <trkpt lat="45.67987" lon="3.24282">
        <ele>767.75</ele>
        <time>2014-03-09T09:38:37Z</time>
      </trkpt>
      <trkpt lat="45.67973" lon="3.24283">
        <ele>765.83</ele>
        <time>2014-03-09T09:38:46Z</time>
      </trkpt>
      <trkpt lat="45.67959" lon="3.2429">
        <ele>762.46</ele>
        <time>2014-03-09T09:38:54Z</time>
      </trkpt>
      <trkpt lat="45.67935" lon="3.24293">
        <ele>759.58</ele>
        <time>2014-03-09T09:39:03Z</time>
      </trkpt>
      <trkpt lat="45.67925" lon="3.24298">
        <ele>760.54</ele>
        <time>2014-03-09T09:39:09Z</time>
      </trkpt>
      <trkpt lat="45.67926" lon="3.24307">
        <ele>758.62</ele>
        <time>2014-03-09T09:39:13Z</time>
      </trkpt>
      <trkpt lat="45.67934" lon="3.24327">
        <ele>754.77</ele>
        <time>2014-03-09T09:39:21Z</time>
      </trkpt>
      <trkpt lat="45.67945" lon="3.24343">
        <ele>752.37</ele>
        <time>2014-03-09T09:39:29Z</time>
      </trkpt>
      <trkpt lat="45.67952" lon="3.24347">
        <ele>749</ele>
        <time>2014-03-09T09:39:35Z</time>
      </trkpt>
      <trkpt lat="45.67956" lon="3.24349">
        <ele>748.04</ele>
        <time>2014-03-09T09:39:38Z</time>
      </trkpt>
      <trkpt lat="45.67968" lon="3.24354">
        <ele>744.68</ele>
        <time>2014-03-09T09:39:46Z</time>
      </trkpt>
      <trkpt lat="45.67969" lon="3.24355">
        <ele>744.2</ele>
        <time>2014-03-09T09:39:47Z</time>
      </trkpt>
      <trkpt lat="45.68005" lon="3.24387">
        <ele>740.83</ele>
        <time>2014-03-09T09:40:01Z</time>
      </trkpt>
      <trkpt lat="45.68023" lon="3.24401">
        <ele>736.99</ele>
        <time>2014-03-09T09:40:08Z</time>
      </trkpt>
      <trkpt lat="45.68039" lon="3.24413">
        <ele>734.1</ele>
        <time>2014-03-09T09:40:14Z</time>
      </trkpt>
      <trkpt lat="45.68055" lon="3.24431">
        <ele>730.74</ele>
        <time>2014-03-09T09:40:21Z</time>
      </trkpt>
      <trkpt lat="45.68058" lon="3.24434">
        <ele>730.26</ele>
        <time>2014-03-09T09:40:22Z</time>
      </trkpt>
      <trkpt lat="45.68075" lon="3.24455">
        <ele>726.89</ele>
        <time>2014-03-09T09:40:30Z</time>
      </trkpt>
      <trkpt lat="45.68078" lon="3.24457">
        <ele>726.89</ele>
        <time>2014-03-09T09:40:31Z</time>
      </trkpt>
      <trkpt lat="45.68101" lon="3.24495">
        <ele>724.01</ele>
        <time>2014-03-09T09:40:43Z</time>
      </trkpt>
      <trkpt lat="45.68094" lon="3.24528">
        <ele>721.13</ele>
        <time>2014-03-09T09:40:54Z</time>
      </trkpt>
      <trkpt lat="45.68064" lon="3.24527">
        <ele>717.76</ele>
        <time>2014-03-09T09:41:06Z</time>
      </trkpt>
      <trkpt lat="45.68059" lon="3.24527">
        <ele>716.8</ele>
        <time>2014-03-09T09:41:08Z</time>
      </trkpt>
      <trkpt lat="45.68035" lon="3.24531">
        <ele>713.44</ele>
        <time>2014-03-09T09:41:17Z</time>
      </trkpt>
      <trkpt lat="45.6803" lon="3.24532">
        <ele>712.47</ele>
        <time>2014-03-09T09:41:19Z</time>
      </trkpt>
      <trkpt lat="45.68001" lon="3.24533">
        <ele>709.11</ele>
        <time>2014-03-09T09:41:29Z</time>
      </trkpt>
      <trkpt lat="45.67995" lon="3.24533">
        <ele>708.15</ele>
        <time>2014-03-09T09:41:31Z</time>
      </trkpt>
      <trkpt lat="45.67953" lon="3.24542">
        <ele>705.26</ele>
        <time>2014-03-09T09:41:48Z</time>
      </trkpt>
      <trkpt lat="45.67935" lon="3.24542">
        <ele>701.9</ele>
        <time>2014-03-09T09:41:55Z</time>
      </trkpt>
      <trkpt lat="45.67915" lon="3.2454">
        <ele>699.02</ele>
        <time>2014-03-09T09:42:02Z</time>
      </trkpt>
      <trkpt lat="45.67909" lon="3.24539">
        <ele>698.05</ele>
        <time>2014-03-09T09:42:04Z</time>
      </trkpt>
      <trkpt lat="45.67888" lon="3.24535">
        <ele>694.21</ele>
        <time>2014-03-09T09:42:11Z</time>
      </trkpt>
      <trkpt lat="45.67857" lon="3.24533">
        <ele>691.33</ele>
        <time>2014-03-09T09:42:22Z</time>
      </trkpt>
      <trkpt lat="45.67847" lon="3.24534">
        <ele>688.92</ele>
        <time>2014-03-09T09:42:26Z</time>
      </trkpt>
      <trkpt lat="45.67828" lon="3.24533">
        <ele>685.56</ele>
        <time>2014-03-09T09:42:33Z</time>
      </trkpt>
      <trkpt lat="45.67815" lon="3.24528">
        <ele>682.67</ele>
        <time>2014-03-09T09:42:38Z</time>
      </trkpt>
      <trkpt lat="45.67802" lon="3.24521">
        <ele>680.27</ele>
        <time>2014-03-09T09:42:44Z</time>
      </trkpt>
      <trkpt lat="45.67793" lon="3.24517">
        <ele>677.39</ele>
        <time>2014-03-09T09:42:48Z</time>
      </trkpt>
      <trkpt lat="45.67786" lon="3.24515">
        <ele>674.5</ele>
        <time>2014-03-09T09:42:51Z</time>
      </trkpt>
      <trkpt lat="45.67784" lon="3.24514">
        <ele>674.5</ele>
        <time>2014-03-09T09:42:52Z</time>
      </trkpt>
      <trkpt lat="45.6777" lon="3.24507">
        <ele>671.14</ele>
        <time>2014-03-09T09:42:59Z</time>
      </trkpt>
      <trkpt lat="45.67761" lon="3.24502">
        <ele>667.77</ele>
        <time>2014-03-09T09:43:04Z</time>
      </trkpt>
      <trkpt lat="45.67745" lon="3.24502">
        <ele>664.41</ele>
        <time>2014-03-09T09:43:11Z</time>
      </trkpt>
      <trkpt lat="45.67733" lon="3.24516">
        <ele>661.52</ele>
        <time>2014-03-09T09:43:19Z</time>
      </trkpt>
      <trkpt lat="45.67728" lon="3.24527">
        <ele>659.6</ele>
        <time>2014-03-09T09:43:23Z</time>
      </trkpt>
      <trkpt lat="45.67723" lon="3.24538">
        <ele>657.68</ele>
        <time>2014-03-09T09:43:28Z</time>
      </trkpt>
      <trkpt lat="45.67719" lon="3.24544">
        <ele>656.24</ele>
        <time>2014-03-09T09:43:31Z</time>
      </trkpt>
      <trkpt lat="45.67712" lon="3.24554">
        <ele>654.31</ele>
        <time>2014-03-09T09:43:36Z</time>
      </trkpt>
      <trkpt lat="45.67707" lon="3.24559">
        <ele>652.87</ele>
        <time>2014-03-09T09:43:39Z</time>
      </trkpt>
      <trkpt lat="45.67697" lon="3.24568">
        <ele>649.99</ele>
        <time>2014-03-09T09:43:43Z</time>
      </trkpt>
      <trkpt lat="45.67685" lon="3.24578">
        <ele>646.62</ele>
        <time>2014-03-09T09:43:48Z</time>
      </trkpt>
      <trkpt lat="45.67674" lon="3.24588">
        <ele>643.26</ele>
        <time>2014-03-09T09:43:53Z</time>
      </trkpt>
      <trkpt lat="45.67672" lon="3.2459">
        <ele>642.78</ele>
        <time>2014-03-09T09:43:54Z</time>
      </trkpt>
      <trkpt lat="45.67663" lon="3.24598">
        <ele>639.89</ele>
        <time>2014-03-09T09:43:58Z</time>
      </trkpt>
      <trkpt lat="45.67652" lon="3.24611">
        <ele>637.01</ele>
        <time>2014-03-09T09:44:04Z</time>
      </trkpt>
      <trkpt lat="45.67647" lon="3.24618">
        <ele>635.09</ele>
        <time>2014-03-09T09:44:07Z</time>
      </trkpt>
      <trkpt lat="45.6764" lon="3.24629">
        <ele>632.2</ele>
        <time>2014-03-09T09:44:11Z</time>
      </trkpt>
      <trkpt lat="45.67624" lon="3.24647">
        <ele>628.84</ele>
        <time>2014-03-09T09:44:17Z</time>
      </trkpt>
      <trkpt lat="45.6761" lon="3.24667">
        <ele>625.96</ele>
        <time>2014-03-09T09:44:24Z</time>
      </trkpt>
      <trkpt lat="45.67596" lon="3.24684">
        <ele>622.11</ele>
        <time>2014-03-09T09:44:31Z</time>
      </trkpt>
      <trkpt lat="45.67586" lon="3.24711">
        <ele>618.75</ele>
        <time>2014-03-09T09:44:39Z</time>
      </trkpt>
      <trkpt lat="45.67571" lon="3.24738">
        <ele>615.38</ele>
        <time>2014-03-09T09:44:47Z</time>
      </trkpt>
      <trkpt lat="45.67556" lon="3.24754">
        <ele>612.5</ele>
        <time>2014-03-09T09:44:54Z</time>
      </trkpt>
      <trkpt lat="45.67507" lon="3.24781">
        <ele>610.57</ele>
        <time>2014-03-09T09:45:13Z</time>
      </trkpt>
      <trkpt lat="45.67449" lon="3.24788">
        <ele>607.69</ele>
        <time>2014-03-09T09:45:36Z</time>
      </trkpt>
      <trkpt lat="45.67391" lon="3.24793">
        <ele>606.73</ele>
        <time>2014-03-09T09:45:58Z</time>
      </trkpt>
      <trkpt lat="45.67386" lon="3.24795">
        <ele>605.77</ele>
        <time>2014-03-09T09:46:00Z</time>
      </trkpt>
      <trkpt lat="45.6737" lon="3.24799">
        <ele>603.85</ele>
        <time>2014-03-09T09:46:06Z</time>
      </trkpt>
      <trkpt lat="45.67336" lon="3.24806">
        <ele>600.48</ele>
        <time>2014-03-09T09:46:19Z</time>
      </trkpt>
      <trkpt lat="45.67282" lon="3.24813">
        <ele>598.08</ele>
        <time>2014-03-09T09:46:40Z</time>
      </trkpt>
      <trkpt lat="45.67233" lon="3.24795">
        <ele>598.08</ele>
        <time>2014-03-09T09:47:00Z</time>
      </trkpt>
      <trkpt lat="45.67201" lon="3.24783">
        <ele>594.71</ele>
        <time>2014-03-09T09:47:13Z</time>
      </trkpt>
      <trkpt lat="45.67182" lon="3.24784">
        <ele>591.83</ele>
        <time>2014-03-09T09:47:20Z</time>
      </trkpt>
      <trkpt lat="45.6717" lon="3.24782">
        <ele>589.43</ele>
        <time>2014-03-09T09:47:24Z</time>
      </trkpt>
      <trkpt lat="45.67152" lon="3.24768">
        <ele>586.54</ele>
        <time>2014-03-09T09:47:31Z</time>
      </trkpt>
      <trkpt lat="45.67132" lon="3.24721">
        <ele>583.18</ele>
        <time>2014-03-09T09:47:45Z</time>
      </trkpt>
      <trkpt lat="45.67125" lon="3.24702">
        <ele>580.77</ele>
        <time>2014-03-09T09:47:51Z</time>
      </trkpt>
      <trkpt lat="45.67117" lon="3.24674">
        <ele>577.89</ele>
        <time>2014-03-09T09:47:59Z</time>
      </trkpt>
      <trkpt lat="45.67114" lon="3.24639">
        <ele>574.53</ele>
        <time>2014-03-09T09:48:08Z</time>
      </trkpt>
      <trkpt lat="45.67111" lon="3.24616">
        <ele>572.12</ele>
        <time>2014-03-09T09:48:14Z</time>
      </trkpt>
      <trkpt lat="45.67109" lon="3.24587">
        <ele>568.76</ele>
        <time>2014-03-09T09:48:22Z</time>
      </trkpt>
      <trkpt lat="45.67108" lon="3.24578">
        <ele>567.8</ele>
        <time>2014-03-09T09:48:24Z</time>
      </trkpt>
      <trkpt lat="45.67109" lon="3.24539">
        <ele>564.91</ele>
        <time>2014-03-09T09:48:33Z</time>
      </trkpt>
      <trkpt lat="45.6711" lon="3.24535">
        <ele>564.43</ele>
        <time>2014-03-09T09:48:34Z</time>
      </trkpt>
      <trkpt lat="45.6711" lon="3.24525">
        <ele>563.47</ele>
        <time>2014-03-09T09:48:37Z</time>
      </trkpt>
      <trkpt lat="45.671" lon="3.2448">
        <ele>560.11</ele>
        <time>2014-03-09T09:48:49Z</time>
      </trkpt>
      <trkpt lat="45.67088" lon="3.24438">
        <ele>556.74</ele>
        <time>2014-03-09T09:49:00Z</time>
      </trkpt>
      <trkpt lat="45.67083" lon="3.24414">
        <ele>552.9</ele>
        <time>2014-03-09T09:49:06Z</time>
      </trkpt>
      <trkpt lat="45.67081" lon="3.2439">
        <ele>550.01</ele>
        <time>2014-03-09T09:49:12Z</time>
      </trkpt>
      <trkpt lat="45.67082" lon="3.24367">
        <ele>546.65</ele>
        <time>2014-03-09T09:49:18Z</time>
      </trkpt>
      <trkpt lat="45.67082" lon="3.2436">
        <ele>546.17</ele>
        <time>2014-03-09T09:49:20Z</time>
      </trkpt>
      <trkpt lat="45.67088" lon="3.24338">
        <ele>542.8</ele>
        <time>2014-03-09T09:49:26Z</time>
      </trkpt>
      <trkpt lat="45.6709" lon="3.2433">
        <ele>541.36</ele>
        <time>2014-03-09T09:49:28Z</time>
      </trkpt>
      <trkpt lat="45.67099" lon="3.24313">
        <ele>538.48</ele>
        <time>2014-03-09T09:49:33Z</time>
      </trkpt>
      <trkpt lat="45.67107" lon="3.24301">
        <ele>536.07</ele>
        <time>2014-03-09T09:49:37Z</time>
      </trkpt>
      <trkpt lat="45.67111" lon="3.24295">
        <ele>535.11</ele>
        <time>2014-03-09T09:49:39Z</time>
      </trkpt>
      <trkpt lat="45.67116" lon="3.24286">
        <ele>533.67</ele>
        <time>2014-03-09T09:49:42Z</time>
      </trkpt>
      <trkpt lat="45.6712" lon="3.2428">
        <ele>532.71</ele>
        <time>2014-03-09T09:49:44Z</time>
      </trkpt>
      <trkpt lat="45.67134" lon="3.24265">
        <ele>530.3</ele>
        <time>2014-03-09T09:49:50Z</time>
      </trkpt>
      <trkpt lat="45.67145" lon="3.24253">
        <ele>526.94</ele>
        <time>2014-03-09T09:49:55Z</time>
      </trkpt>
      <trkpt lat="45.67159" lon="3.24238">
        <ele>524.06</ele>
        <time>2014-03-09T09:50:01Z</time>
      </trkpt>
      <trkpt lat="45.6717" lon="3.24227">
        <ele>521.65</ele>
        <time>2014-03-09T09:50:06Z</time>
      </trkpt>
      <trkpt lat="45.67187" lon="3.24207">
        <ele>518.29</ele>
        <time>2014-03-09T09:50:14Z</time>
      </trkpt>
      <trkpt lat="45.67191" lon="3.24202">
        <ele>517.81</ele>
        <time>2014-03-09T09:50:16Z</time>
      </trkpt>
      <trkpt lat="45.67193" lon="3.24198">
        <ele>517.33</ele>
        <time>2014-03-09T09:50:17Z</time>
      </trkpt>
      <trkpt lat="45.67193" lon="3.24163">
        <ele>513</ele>
        <time>2014-03-09T09:50:28Z</time>
      </trkpt>
      <trkpt lat="45.67195" lon="3.2414">
        <ele>510.12</ele>
        <time>2014-03-09T09:50:42Z</time>
      </trkpt>
      <trkpt lat="45.67191" lon="3.24103">
        <ele>508.19</ele>
        <time>2014-03-09T09:50:50Z</time>
      </trkpt>
      <trkpt lat="45.67181" lon="3.24094">
        <ele>508.19</ele>
        <time>2014-03-09T09:50:57Z</time>
      </trkpt>
      <trkpt lat="45.67146" lon="3.24114">
        <ele>506.75</ele>
        <time>2014-03-09T09:51:16Z</time>
      </trkpt>
      <trkpt lat="45.67102" lon="3.24146">
        <ele>508.67</ele>
        <time>2014-03-09T09:51:35Z</time>
      </trkpt>
      <trkpt lat="45.6707" lon="3.2414">
        <ele>505.31</ele>
        <time>2014-03-09T09:51:48Z</time>
      </trkpt>
      <trkpt lat="45.67027" lon="3.24116">
        <ele>504.83</ele>
        <time>2014-03-09T09:52:09Z</time>
      </trkpt>
      <trkpt lat="45.66986" lon="3.24077">
        <ele>506.75</ele>
        <time>2014-03-09T09:52:29Z</time>
      </trkpt>
      <trkpt lat="45.66944" lon="3.24076">
        <ele>504.83</ele>
        <time>2014-03-09T09:52:49Z</time>
      </trkpt>
      <trkpt lat="45.66934" lon="3.24072">
        <ele>502.91</ele>
        <time>2014-03-09T09:52:54Z</time>
      </trkpt>
      <trkpt lat="45.66915" lon="3.24062">
        <ele>500.02</ele>
        <time>2014-03-09T09:53:02Z</time>
      </trkpt>
      <trkpt lat="45.66904" lon="3.24056">
        <ele>498.58</ele>
        <time>2014-03-09T09:53:07Z</time>
      </trkpt>
      <trkpt lat="45.66887" lon="3.24046">
        <ele>495.22</ele>
        <time>2014-03-09T09:53:15Z</time>
      </trkpt>
      <trkpt lat="45.6685" lon="3.2404">
        <ele>494.26</ele>
        <time>2014-03-09T09:53:32Z</time>
      </trkpt>
      <trkpt lat="45.6683" lon="3.24034">
        <ele>490.89</ele>
        <time>2014-03-09T09:53:40Z</time>
      </trkpt>
      <trkpt lat="45.66824" lon="3.24032">
        <ele>488.97</ele>
        <time>2014-03-09T09:53:43Z</time>
      </trkpt>
      <trkpt lat="45.66816" lon="3.24029">
        <ele>486.56</ele>
        <time>2014-03-09T09:53:47Z</time>
      </trkpt>
      <trkpt lat="45.66804" lon="3.24023">
        <ele>483.2</ele>
        <time>2014-03-09T09:53:52Z</time>
      </trkpt>
      <trkpt lat="45.66794" lon="3.2402">
        <ele>479.84</ele>
        <time>2014-03-09T09:53:56Z</time>
      </trkpt>
      <trkpt lat="45.66788" lon="3.24017">
        <ele>478.39</ele>
        <time>2014-03-09T09:53:59Z</time>
      </trkpt>
      <trkpt lat="45.6678" lon="3.24024">
        <ele>473.59</ele>
        <time>2014-03-09T09:54:05Z</time>
      </trkpt>
      <trkpt lat="45.66778" lon="3.24026">
        <ele>473.11</ele>
        <time>2014-03-09T09:54:06Z</time>
      </trkpt>
      <trkpt lat="45.66772" lon="3.24035">
        <ele>471.18</ele>
        <time>2014-03-09T09:54:09Z</time>
      </trkpt>
      <trkpt lat="45.66743" lon="3.24086">
        <ele>469.74</ele>
        <time>2014-03-09T09:54:25Z</time>
      </trkpt>
      <trkpt lat="45.66739" lon="3.24091">
        <ele>470.22</ele>
        <time>2014-03-09T09:54:27Z</time>
      </trkpt>
      <trkpt lat="45.66716" lon="3.24076">
        <ele>466.38</ele>
        <time>2014-03-09T09:54:36Z</time>
      </trkpt>
      <trkpt lat="45.66698" lon="3.24049">
        <ele>463.49</ele>
        <time>2014-03-09T09:54:45Z</time>
      </trkpt>
      <trkpt lat="45.66681" lon="3.24019">
        <ele>460.13</ele>
        <time>2014-03-09T09:54:54Z</time>
      </trkpt>
      <trkpt lat="45.66671" lon="3.24003">
        <ele>458.21</ele>
        <time>2014-03-09T09:54:59Z</time>
      </trkpt>
      <trkpt lat="45.66649" lon="3.23959">
        <ele>455.32</ele>
        <time>2014-03-09T09:55:14Z</time>
      </trkpt>
      <trkpt lat="45.66638" lon="3.23933">
        <ele>451.96</ele>
        <time>2014-03-09T09:55:23Z</time>
      </trkpt>
      <trkpt lat="45.66625" lon="3.23908">
        <ele>449.07</ele>
        <time>2014-03-09T09:55:31Z</time>
      </trkpt>
      <trkpt lat="45.6661" lon="3.23883">
        <ele>445.71</ele>
        <time>2014-03-09T09:55:40Z</time>
      </trkpt>
      <trkpt lat="45.66606" lon="3.23879">
        <ele>445.23</ele>
        <time>2014-03-09T09:55:42Z</time>
      </trkpt>
      <trkpt lat="45.66595" lon="3.23868">
        <ele>442.82</ele>
        <time>2014-03-09T09:55:47Z</time>
      </trkpt>
      <trkpt lat="45.66578" lon="3.23853">
        <ele>439.46</ele>
        <time>2014-03-09T09:55:55Z</time>
      </trkpt>
      <trkpt lat="45.66562" lon="3.2384">
        <ele>437.54</ele>
        <time>2014-03-09T09:56:02Z</time>
      </trkpt>
      <trkpt lat="45.66558" lon="3.23831">
        <ele>437.06</ele>
        <time>2014-03-09T09:56:06Z</time>
      </trkpt>
      <trkpt lat="45.66543" lon="3.23784">
        <ele>433.69</ele>
        <time>2014-03-09T09:56:19Z</time>
      </trkpt>
      <trkpt lat="45.66541" lon="3.23756">
        <ele>431.77</ele>
        <time>2014-03-09T09:56:29Z</time>
      </trkpt>
      <trkpt lat="45.66524" lon="3.23734">
        <ele>428.4</ele>
        <time>2014-03-09T09:56:39Z</time>
      </trkpt>
      <trkpt lat="45.66522" lon="3.23732">
        <ele>427.92</ele>
        <time>2014-03-09T09:56:40Z</time>
      </trkpt>
      <trkpt lat="45.66505" lon="3.2369">
        <ele>426</ele>
        <time>2014-03-09T09:56:53Z</time>
      </trkpt>
      <trkpt lat="45.66516" lon="3.23673">
        <ele>426</ele>
        <time>2014-03-09T09:57:01Z</time>
      </trkpt>
      <trkpt lat="45.66549" lon="3.23678">
        <ele>426.96</ele>
        <time>2014-03-09T09:57:12Z</time>
      </trkpt>
    </trkseg>
  </trk>
</gpx>